createdAt,value
2018-12-16T00:01:35.053Z,8.53
2018-12-16T00:04:04.011Z,9.25
2018-12-16T00:06:32.942Z,9.80
2018-12-16T00:09:01.976Z,11.03
2018-12-16T00:11:30.877Z,12.47
2018-12-16T00:13:59.768Z,9.05
2018-12-16T00:16:28.742Z,8.70
2018-12-16T00:18:57.652Z,9.93
2018-12-16T00:21:26.558Z,9.80
2018-12-16T00:23:55.527Z,9.60
2018-12-16T00:26:26.492Z,9.45
2018-12-16T00:28:55.464Z,9.25
2018-12-16T00:31:24.357Z,8.23
2018-12-16T00:33:53.260Z,9.58
2018-12-16T00:36:22.284Z,10.37
2018-12-16T00:38:51.325Z,10.93
2018-12-16T00:41:20.228Z,9.20
2018-12-16T00:43:49.184Z,9.98
2018-12-16T00:46:18.095Z,10.38
2018-12-16T00:48:46.994Z,9.87
2018-12-16T00:51:16.096Z,10.05
2018-12-16T00:53:45.024Z,10.60
2018-12-16T00:56:13.947Z,12.28
2018-12-16T00:58:42.924Z,11.45
2018-12-16T01:01:11.816Z,10.85
2018-12-16T01:03:40.724Z,10.10
2018-12-16T01:06:09.728Z,10.37
2018-12-16T01:08:38.685Z,10.98
2018-12-16T01:11:07.611Z,10.38
2018-12-16T01:13:37.608Z,10.80
2018-12-16T01:16:07.467Z,11.33
2018-12-16T01:18:36.868Z,11.93
2018-12-16T01:21:05.760Z,11.48
2018-12-16T01:23:34.652Z,10.48
2018-12-16T01:26:03.654Z,10.27
2018-12-16T01:28:32.582Z,10.23
2018-12-16T01:31:01.496Z,12.23
2018-12-16T01:33:30.689Z,11.65
2018-12-16T01:35:59.628Z,10.03
2018-12-16T01:38:28.532Z,11.97
2018-12-16T01:40:57.606Z,11.28
2018-12-16T01:43:26.513Z,9.95
2018-12-16T01:45:56.210Z,9.18
2018-12-16T01:48:25.193Z,10.93
2018-12-16T01:50:54.164Z,8.43
2018-12-16T01:53:23.108Z,9.60
2018-12-16T01:55:52.128Z,10.50
2018-12-16T01:58:21.035Z,9.90
2018-12-16T02:00:50.052Z,9.50
2018-12-16T02:03:19.043Z,10.70
2018-12-16T02:05:47.946Z,11.85
2018-12-16T02:08:16.884Z,11.70
2018-12-16T02:10:45.905Z,10.67
2018-12-16T02:13:15.022Z,11.20
2018-12-16T02:15:43.932Z,12.15
2018-12-16T02:18:12.889Z,11.93
2018-12-16T02:20:41.797Z,12.98
2018-12-16T02:23:10.699Z,11.45
2018-12-16T02:25:40.449Z,10.82
2018-12-16T02:28:09.513Z,10.25
2018-12-16T02:30:38.465Z,11.70
2018-12-16T02:33:07.505Z,12.00
2018-12-16T02:35:36.401Z,10.63
2018-12-16T02:38:05.322Z,10.28
2018-12-16T02:40:34.453Z,10.63
2018-12-16T02:43:03.495Z,11.23
2018-12-16T02:45:32.473Z,10.20
2018-12-16T02:48:01.510Z,10.20
2018-12-16T02:50:30.465Z,9.60
2018-12-16T02:53:04.583Z,10.33
2018-12-16T02:55:30.833Z,11.37
2018-12-16T02:57:59.742Z,11.77
2018-12-16T03:00:28.641Z,9.80
2018-12-16T03:02:57.625Z,9.07
2018-12-16T03:05:26.526Z,8.85
2018-12-16T03:07:55.412Z,8.80
2018-12-16T03:10:24.390Z,10.20
2018-12-16T03:12:53.288Z,8.93
2018-12-16T03:15:23.068Z,9.73
2018-12-16T03:17:52.054Z,10.32
2018-12-16T03:20:20.989Z,9.50
2018-12-16T03:22:49.872Z,9.73
2018-12-16T03:25:18.865Z,9.63
2018-12-16T03:27:47.765Z,8.60
2018-12-16T03:30:16.712Z,13.30
2018-12-16T03:32:45.721Z,8.80
2018-12-16T03:35:14.633Z,11.00
2018-12-16T03:37:43.540Z,10.10
2018-12-16T03:40:13.131Z,9.87
2018-12-16T03:42:43.147Z,10.77
2018-12-16T03:45:14.795Z,10.67
2018-12-16T03:47:43.684Z,9.17
2018-12-16T03:50:12.626Z,10.30
2018-12-16T03:52:41.606Z,12.37
2018-12-16T03:55:10.523Z,10.23
2018-12-16T03:57:40.557Z,10.67
2018-12-16T04:00:09.702Z,10.80
2018-12-16T04:02:38.597Z,10.60
2018-12-16T04:05:08.033Z,10.13
2018-12-16T04:07:37.792Z,11.33
2018-12-16T04:10:06.848Z,12.37
2018-12-16T04:12:35.744Z,10.50
2018-12-16T04:15:04.998Z,10.33
2018-12-16T04:17:34.872Z,11.83
2018-12-16T04:20:03.830Z,9.38
2018-12-16T04:22:32.913Z,11.90
2018-12-16T04:25:01.834Z,10.80
2018-12-16T04:27:30.824Z,10.80
2018-12-16T04:29:59.780Z,12.17
2018-12-16T04:32:28.677Z,12.43
2018-12-16T04:34:57.576Z,14.00
2018-12-16T04:37:27.165Z,12.53
2018-12-16T04:39:56.082Z,13.40
2018-12-16T04:42:24.980Z,12.73
2018-12-16T04:44:53.935Z,13.63
2018-12-16T04:47:22.902Z,12.03
2018-12-16T04:49:51.828Z,12.27
2018-12-16T04:52:20.825Z,15.03
2018-12-16T04:54:49.748Z,12.60
2018-12-16T04:57:18.645Z,13.53
2018-12-16T04:59:47.624Z,12.90
2018-12-16T05:02:16.534Z,13.07
2018-12-16T05:04:45.499Z,13.70
2018-12-16T05:07:14.517Z,15.38
2018-12-16T05:09:43.429Z,14.70
2018-12-16T05:12:12.377Z,14.23
2018-12-16T05:14:41.396Z,16.37
2018-12-16T05:17:11.388Z,14.55
2018-12-16T05:19:40.343Z,10.53
2018-12-16T05:22:21.577Z,13.18
2018-12-16T05:24:50.544Z,14.70
2018-12-16T05:27:19.504Z,13.32
2018-12-16T05:29:48.511Z,13.35
2018-12-16T05:32:17.485Z,14.78
2018-12-16T05:34:46.413Z,13.03
2018-12-16T05:37:15.421Z,14.87
2018-12-16T05:39:44.342Z,12.45
2018-12-16T05:42:13.256Z,13.98
2018-12-16T05:44:42.254Z,12.65
2018-12-16T05:47:11.181Z,13.88
2018-12-16T05:49:40.350Z,13.48
2018-12-16T05:52:09.374Z,14.85
2018-12-16T05:54:38.508Z,14.58
2018-12-16T05:57:07.422Z,13.20
2018-12-16T05:59:36.850Z,15.75
2018-12-16T06:02:05.777Z,14.05
2018-12-16T06:04:34.688Z,12.33
2018-12-16T06:07:03.772Z,15.90
2018-12-16T06:09:32.688Z,13.90
2018-12-16T06:12:16.149Z,14.05
2018-12-16T06:14:45.068Z,13.85
2018-12-16T06:17:14.060Z,14.18
2018-12-16T06:19:43.033Z,14.63
2018-12-16T06:22:13.045Z,16.02
2018-12-16T06:24:42.077Z,12.95
2018-12-16T06:27:11.862Z,15.25
2018-12-16T06:29:41.916Z,12.55
2018-12-16T06:32:10.856Z,10.82
2018-12-16T06:34:39.829Z,11.63
2018-12-16T06:37:08.868Z,13.03
2018-12-16T06:39:38.028Z,15.28
2018-12-16T06:42:06.949Z,14.47
2018-12-16T06:44:36.026Z,16.20
2018-12-16T06:47:05.022Z,15.38
2018-12-16T06:49:33.969Z,15.10
2018-12-16T06:52:03.045Z,16.73
2018-12-16T06:54:32.076Z,16.52
2018-12-16T06:57:01.069Z,17.37
2018-12-16T06:59:30.110Z,16.48
2018-12-16T07:02:01.040Z,12.45
2018-12-16T07:04:30.116Z,18.23
2018-12-16T07:06:59.295Z,16.05
2018-12-16T07:09:28.320Z,15.18
2018-12-16T07:11:57.421Z,16.32
2018-12-16T07:14:26.456Z,16.07
2018-12-16T07:16:58.814Z,16.75
2018-12-16T07:19:28.441Z,18.12
2018-12-16T07:21:58.045Z,17.15
2018-12-16T07:24:27.090Z,17.90
2018-12-16T07:26:56.074Z,17.02
2018-12-16T07:29:25.113Z,17.05
2018-12-16T07:31:54.122Z,13.03
2018-12-16T07:34:23.237Z,15.45
2018-12-16T07:36:52.276Z,18.23
2018-12-16T07:39:21.252Z,16.90
2018-12-16T07:41:50.295Z,17.37
2018-12-16T07:44:19.344Z,14.53
2018-12-16T07:46:48.316Z,15.32
2018-12-16T07:49:17.325Z,13.70
2018-12-16T07:51:46.388Z,18.65
2018-12-16T07:54:16.203Z,15.18
2018-12-16T07:56:45.452Z,17.50
2018-12-16T07:59:14.491Z,18.92
2018-12-16T08:01:43.447Z,16.67
2018-12-16T08:04:12.558Z,16.67
2018-12-16T08:09:23.724Z,16.05
2018-12-16T08:11:53.917Z,15.78
2018-12-16T08:14:22.970Z,14.33
2018-12-16T08:16:52.013Z,15.35
2018-12-16T08:19:20.973Z,16.00
2018-12-16T08:21:49.906Z,17.37
2018-12-16T08:24:23.208Z,14.83
2018-12-16T08:26:50.339Z,15.98
2018-12-16T08:29:19.564Z,11.65
2018-12-16T08:31:48.750Z,15.63
2018-12-16T08:34:17.697Z,17.67
2018-12-16T08:36:46.726Z,16.80
2018-12-16T08:39:15.721Z,15.53
2018-12-16T08:41:44.645Z,16.75
2018-12-16T08:44:13.686Z,14.58
2018-12-16T08:46:42.645Z,15.28
2018-12-16T08:49:11.682Z,16.45
2018-12-16T08:51:40.692Z,16.87
2018-12-16T08:54:09.612Z,16.30
2018-12-16T08:56:38.668Z,16.55
2018-12-16T08:59:07.746Z,18.00
2018-12-16T09:01:36.705Z,14.33
2018-12-16T09:04:05.759Z,17.17
2018-12-16T09:06:35.958Z,17.48
2018-12-16T09:09:07.230Z,17.10
2018-12-16T09:11:36.372Z,16.20
2018-12-16T09:14:05.302Z,16.82
2018-12-16T09:16:34.225Z,13.15
2018-12-16T09:19:03.285Z,15.50
2018-12-16T09:21:32.218Z,13.00
2018-12-16T09:24:01.201Z,14.25
2018-12-16T09:26:30.271Z,15.15
2018-12-16T09:28:59.525Z,14.73
2018-12-16T09:31:28.547Z,15.32
2018-12-16T09:33:57.567Z,15.30
2018-12-16T09:36:26.749Z,13.38
2018-12-16T09:38:55.741Z,12.73
2018-12-16T09:41:25.273Z,16.05
2018-12-16T09:43:54.255Z,15.40
2018-12-16T09:46:23.209Z,15.43
2018-12-16T09:48:52.239Z,16.02
2018-12-16T09:51:21.146Z,16.42
2018-12-16T09:53:50.109Z,15.48
2018-12-16T09:56:19.264Z,15.38
2018-12-16T09:58:48.658Z,16.17
2018-12-16T10:01:18.486Z,16.42
2018-12-16T10:03:47.837Z,16.70
2018-12-16T10:06:16.905Z,16.52
2018-12-16T10:08:45.883Z,17.73
2018-12-16T10:11:14.921Z,16.20
2018-12-16T10:14:00.460Z,15.20
2018-12-16T10:16:29.539Z,16.80
2018-12-16T10:18:58.550Z,14.20
2018-12-16T10:21:27.520Z,15.43
2018-12-16T10:23:56.682Z,15.55
2018-12-16T10:26:25.657Z,14.35
2018-12-16T10:28:54.592Z,15.32
2018-12-16T10:31:23.684Z,13.93
2018-12-16T10:33:52.696Z,16.30
2018-12-16T10:36:21.649Z,14.85
2018-12-16T10:38:50.741Z,15.28
2018-12-16T10:41:19.781Z,15.05
2018-12-16T10:43:48.695Z,15.78
2018-12-16T10:46:18.425Z,15.18
2018-12-16T10:48:47.344Z,14.87
2018-12-16T10:51:16.362Z,15.78
2018-12-16T10:53:45.663Z,16.45
2018-12-16T10:56:14.834Z,16.70
2018-12-16T10:58:43.775Z,16.48
2018-12-16T11:01:19.765Z,14.78
2018-12-16T11:03:48.890Z,15.60
2018-12-16T11:06:18.063Z,17.52
2018-12-16T11:08:47.430Z,14.73
2018-12-16T11:11:16.472Z,17.85
2018-12-16T11:13:45.408Z,19.32
2018-12-16T11:16:14.470Z,18.70
2018-12-16T11:18:43.372Z,16.10
2018-12-16T11:21:12.536Z,14.43
2018-12-16T11:23:41.545Z,21.05
2018-12-16T11:26:11.334Z,20.10
2018-12-16T11:28:40.380Z,20.05
2018-12-16T11:31:10.402Z,15.78
2018-12-16T11:33:39.416Z,18.65
2018-12-16T11:36:08.448Z,19.75
2018-12-16T11:38:37.567Z,19.65
2018-12-16T11:41:06.637Z,19.82
2018-12-16T11:43:35.714Z,23.75
2018-12-16T11:46:04.785Z,20.20
2018-12-16T11:48:33.830Z,19.52
2018-12-16T11:51:02.975Z,19.35
2018-12-16T11:53:31.992Z,20.65
2018-12-16T11:56:01.060Z,20.35
2018-12-16T11:58:30.100Z,19.42
2018-12-16T12:00:59.223Z,16.87
2018-12-16T12:03:28.326Z,17.90
2018-12-16T12:05:57.277Z,15.98
2018-12-16T12:08:26.861Z,17.98
2018-12-16T12:10:55.960Z,17.98
2018-12-16T12:13:24.961Z,17.92
2018-12-16T12:15:54.011Z,18.37
2018-12-16T12:18:22.965Z,20.00
2018-12-16T12:20:51.982Z,19.82
2018-12-16T12:23:21.918Z,19.40
2018-12-16T12:25:50.863Z,17.77
2018-12-16T12:28:20.130Z,19.12
2018-12-16T12:30:49.284Z,19.62
2018-12-16T12:33:18.270Z,18.62
2018-12-16T12:35:47.256Z,20.10
2018-12-16T12:38:16.407Z,17.70
2018-12-16T12:40:45.571Z,18.15
2018-12-16T12:43:14.567Z,17.75
2018-12-16T12:45:43.591Z,22.27
2018-12-16T12:48:12.554Z,19.15
2018-12-16T12:50:41.548Z,17.90
2018-12-16T12:53:10.609Z,19.07
2018-12-16T12:55:39.582Z,17.92
2018-12-16T12:58:08.543Z,17.55
2018-12-16T13:00:37.617Z,20.48
2018-12-16T13:03:06.586Z,19.35
2018-12-16T13:05:37.083Z,18.75
2018-12-16T13:08:06.342Z,19.27
2018-12-16T13:10:35.368Z,19.20
2018-12-16T13:13:04.365Z,18.80
2018-12-16T13:15:33.540Z,18.32
2018-12-16T13:18:02.542Z,18.52
2018-12-16T13:20:31.585Z,18.98
2018-12-16T13:23:00.598Z,19.12
2018-12-16T13:25:38.785Z,18.75
2018-12-16T13:28:07.848Z,20.02
2018-12-16T13:30:36.833Z,19.27
2018-12-16T13:33:05.918Z,19.10
2018-12-16T13:35:34.917Z,19.67
2018-12-16T13:38:03.864Z,19.55
2018-12-16T13:40:32.931Z,19.17
2018-12-16T13:43:01.997Z,19.57
2018-12-16T13:45:30.958Z,19.07
2018-12-16T13:47:59.925Z,18.67
2018-12-16T13:50:29.020Z,18.65
2018-12-16T13:52:57.980Z,22.45
2018-12-16T13:55:27.007Z,18.05
2018-12-16T13:57:57.171Z,18.80
2018-12-16T14:00:26.133Z,18.67
2018-12-16T14:02:55.157Z,19.27
2018-12-16T14:05:24.252Z,17.60
2018-12-16T14:07:53.297Z,18.15
2018-12-16T14:10:22.411Z,18.40
2018-12-16T14:12:51.739Z,19.05
2018-12-16T14:15:20.753Z,19.07
2018-12-16T14:17:49.822Z,18.73
2018-12-16T14:20:19.030Z,18.80
2018-12-16T14:22:48.056Z,18.62
2018-12-16T14:25:17.048Z,18.62
2018-12-16T14:27:46.149Z,18.42
2018-12-16T14:30:15.224Z,18.37
2018-12-16T14:32:44.717Z,19.90
2018-12-16T14:35:14.602Z,18.25
2018-12-16T14:37:43.709Z,18.87
2018-12-16T14:40:12.743Z,19.65
2018-12-16T14:42:41.797Z,20.05
2018-12-16T14:45:11.013Z,20.82
2018-12-16T14:47:40.165Z,20.57
2018-12-16T14:50:10.382Z,19.15
2018-12-16T14:52:39.410Z,17.98
2018-12-16T14:55:08.726Z,21.25
2018-12-16T14:57:37.800Z,20.85
2018-12-16T15:00:08.516Z,20.40
2018-12-16T15:02:37.600Z,19.60
2018-12-16T15:05:07.821Z,17.92
2018-12-16T15:07:36.816Z,18.17
2018-12-16T15:10:07.284Z,18.62
2018-12-16T15:12:36.284Z,18.98
2018-12-16T15:15:05.646Z,18.23
2018-12-16T15:17:42.506Z,18.32
2018-12-16T15:20:07.544Z,17.60
2018-12-16T15:22:36.627Z,20.55
2018-12-16T15:25:06.223Z,19.00
2018-12-16T15:27:35.245Z,19.02
2018-12-16T15:30:04.987Z,17.70
2018-12-16T15:32:33.995Z,19.15
2018-12-16T15:35:03.066Z,17.87
2018-12-16T15:44:38.676Z,19.70
2018-12-16T15:47:07.633Z,18.07
2018-12-16T15:49:36.686Z,17.80
2018-12-16T15:52:05.727Z,17.77
2018-12-16T15:54:34.726Z,18.45
2018-12-16T15:57:03.809Z,18.65
2018-12-16T15:59:32.867Z,17.50
2018-12-16T16:02:01.850Z,18.62
2018-12-16T16:04:44.056Z,19.35
2018-12-16T16:07:13.099Z,19.17
2018-12-16T16:09:42.099Z,18.67
2018-12-16T16:12:11.213Z,17.62
2018-12-16T16:14:40.156Z,16.85
2018-12-16T16:17:09.118Z,17.32
2018-12-16T16:19:38.139Z,17.00
2018-12-16T16:22:08.214Z,16.87
2018-12-16T16:24:37.286Z,17.67
2018-12-16T16:27:06.372Z,17.30
2018-12-16T16:29:35.344Z,17.90
2018-12-16T16:32:04.443Z,18.20
2018-12-16T16:34:33.539Z,19.10
2018-12-16T16:37:02.487Z,16.45
2018-12-16T16:39:31.458Z,18.42
2018-12-16T16:42:00.503Z,16.23
2018-12-16T16:44:29.466Z,18.12
2018-12-16T16:46:58.429Z,17.82
2018-12-16T16:49:28.020Z,17.57
2018-12-16T16:51:57.001Z,17.07
2018-12-16T16:54:25.959Z,17.62
2018-12-16T16:56:54.990Z,16.87
2018-12-16T16:59:23.910Z,17.60
2018-12-16T17:01:52.848Z,16.73
2018-12-16T17:04:21.844Z,17.92
2018-12-16T17:06:50.792Z,18.80
2018-12-16T17:09:19.735Z,17.42
2018-12-16T17:11:48.705Z,18.45
2018-12-16T17:14:17.755Z,18.77
2018-12-16T17:16:59.421Z,20.15
2018-12-16T17:19:28.598Z,19.87
2018-12-16T17:21:58.389Z,16.42
2018-12-16T17:24:28.492Z,18.10
2018-12-16T17:26:57.413Z,18.75
2018-12-16T17:29:26.358Z,18.87
2018-12-16T17:31:55.388Z,18.07
2018-12-16T17:34:24.892Z,17.77
2018-12-16T17:36:53.902Z,18.67
2018-12-16T17:39:23.461Z,17.48
2018-12-16T17:41:52.435Z,18.55
2018-12-16T17:44:21.376Z,18.65
2018-12-16T17:46:50.449Z,17.05
2018-12-16T17:49:19.380Z,18.30
2018-12-16T17:51:48.338Z,18.07
2018-12-16T17:54:17.854Z,21.12
2018-12-16T17:56:46.806Z,18.70
2018-12-16T17:59:17.960Z,18.37
2018-12-16T18:01:46.939Z,18.12
2018-12-16T18:04:15.877Z,18.70
2018-12-16T18:06:44.836Z,18.67
2018-12-16T18:09:13.839Z,17.40
2018-12-16T18:11:42.867Z,18.62
2018-12-16T18:14:11.892Z,17.05
2018-12-16T18:16:42.048Z,17.55
2018-12-16T18:19:11.017Z,18.20
2018-12-16T18:21:39.953Z,18.23
2018-12-16T18:24:08.972Z,19.40
2018-12-16T18:26:43.788Z,18.45
2018-12-16T18:29:09.081Z,18.55
2018-12-16T18:31:38.005Z,17.32
2018-12-16T18:34:06.948Z,19.10
2018-12-16T18:36:36.029Z,20.17
2018-12-16T18:39:06.312Z,19.95
2018-12-16T18:41:35.341Z,20.50
2018-12-16T18:44:04.469Z,18.98
2018-12-16T18:46:33.436Z,21.42
2018-12-16T18:49:02.441Z,19.50
2018-12-16T18:51:31.400Z,20.50
2018-12-16T18:54:00.372Z,19.05
2018-12-16T18:56:29.422Z,18.90
2018-12-16T18:58:58.401Z,19.57
2018-12-16T19:01:28.277Z,18.80
2018-12-16T19:03:57.369Z,19.02
2018-12-16T19:06:26.341Z,21.57
2018-12-16T19:08:55.332Z,21.02
2018-12-16T19:11:24.476Z,21.55
2018-12-16T19:13:53.453Z,19.52
2018-12-16T19:16:22.385Z,19.77
2018-12-16T19:18:51.619Z,19.10
2018-12-16T19:21:20.545Z,19.23
2018-12-16T19:23:49.538Z,20.45
2018-12-16T19:26:18.572Z,20.95
2018-12-16T19:28:47.713Z,21.85
2018-12-16T19:31:16.665Z,20.95
2018-12-16T19:33:45.648Z,21.20
2018-12-16T19:36:14.590Z,23.32
2018-12-16T19:38:43.549Z,21.82
2018-12-16T19:41:12.537Z,23.35
2018-12-16T19:43:41.457Z,24.15
2018-12-16T19:46:10.372Z,23.65
2018-12-16T19:48:39.726Z,22.27
2018-12-16T19:51:08.660Z,21.05
2018-12-16T19:53:38.646Z,21.00
2018-12-16T19:56:07.721Z,23.22
2018-12-16T19:58:36.838Z,23.55
2018-12-16T20:01:05.834Z,23.65
2018-12-16T20:03:36.976Z,28.27
2018-12-16T20:06:12.501Z,26.68
2018-12-16T20:08:41.488Z,25.72
2018-12-16T20:11:10.424Z,29.70
2018-12-16T20:13:39.347Z,27.37
2018-12-16T20:16:08.444Z,27.73
2018-12-16T20:18:37.348Z,26.45
2018-12-16T20:21:06.353Z,27.95
2018-12-16T20:23:36.131Z,28.30
2018-12-16T20:26:05.080Z,29.18
2018-12-16T20:28:34.065Z,28.40
2018-12-16T20:31:03.142Z,30.35
2018-12-16T20:33:32.078Z,30.70
2018-12-16T20:36:02.108Z,32.03
2018-12-16T20:38:31.153Z,31.37
2018-12-16T20:41:00.107Z,32.67
2018-12-16T20:43:29.064Z,32.50
2018-12-16T20:45:58.253Z,32.25
2018-12-16T20:48:27.221Z,31.97
2018-12-16T20:50:56.128Z,32.17
2018-12-16T20:53:25.124Z,30.20
2018-12-16T20:55:54.053Z,31.42
2018-12-16T20:58:23.036Z,31.52
2018-12-16T21:00:52.120Z,30.48
2018-12-16T21:03:21.118Z,32.28
2018-12-16T21:05:50.044Z,30.90
2018-12-16T21:08:19.073Z,32.42
2018-12-16T21:10:48.058Z,31.27
2018-12-16T21:13:23.508Z,28.15
2018-12-16T21:16:00.858Z,29.80
2018-12-16T21:18:44.876Z,30.37
2018-12-16T21:21:13.873Z,29.57
2018-12-16T21:23:42.849Z,32.03
2018-12-16T21:26:11.825Z,34.83
2018-12-16T21:28:41.577Z,33.83
2018-12-16T21:31:10.495Z,33.02
2018-12-16T21:33:39.479Z,35.23
2018-12-16T21:36:08.527Z,32.38
2018-12-16T21:38:37.453Z,30.88
2018-12-16T21:41:06.448Z,34.40
2018-12-16T21:43:35.488Z,33.67
2018-12-16T21:46:04.423Z,34.92
2018-12-16T21:48:33.441Z,33.20
2018-12-16T21:51:02.366Z,30.45
2018-12-16T21:53:31.334Z,30.70
2018-12-16T21:56:00.323Z,29.67
2018-12-16T21:58:29.258Z,26.62
2018-12-16T22:00:58.193Z,28.20
2018-12-16T22:03:27.249Z,29.50
2018-12-16T22:05:56.204Z,28.40
2018-12-16T22:08:25.137Z,29.05
2018-12-16T22:10:54.145Z,28.30
2018-12-16T22:13:23.064Z,27.75
2018-12-16T22:15:51.969Z,30.50
2018-12-16T22:18:20.949Z,31.02
2018-12-16T22:20:49.874Z,29.55
2018-12-16T22:23:18.845Z,30.48
2018-12-16T22:25:47.881Z,29.37
2018-12-16T22:28:16.830Z,30.15
2018-12-16T22:30:46.774Z,29.10
2018-12-16T22:33:15.768Z,31.25
2018-12-16T22:35:44.735Z,33.42
2018-12-16T22:38:13.657Z,33.30
2018-12-16T22:40:42.825Z,33.53
2018-12-16T22:43:11.973Z,32.88
2018-12-16T22:45:40.913Z,33.83
2018-12-16T22:48:09.934Z,32.15
2018-12-16T22:50:38.867Z,32.25
2018-12-16T22:53:07.791Z,33.05
2018-12-16T22:55:36.812Z,33.35
2018-12-16T22:58:05.752Z,33.63
2018-12-16T23:00:37.317Z,33.28
2018-12-16T23:03:06.271Z,33.98
2018-12-16T23:05:35.176Z,32.60
2018-12-16T23:08:04.217Z,36.73
2018-12-16T23:10:33.301Z,34.83
2018-12-16T23:13:02.255Z,35.50
2018-12-16T23:15:31.253Z,34.53
2018-12-16T23:18:00.205Z,36.63
2018-12-16T23:20:29.622Z,36.50
2018-12-16T23:22:58.615Z,35.13
2018-12-16T23:25:27.598Z,36.05
2018-12-16T23:27:56.517Z,35.63
2018-12-16T23:30:25.495Z,34.50
2018-12-16T23:32:54.412Z,33.75
2018-12-16T23:35:23.329Z,35.10
2018-12-16T23:37:52.335Z,34.18
2018-12-16T23:40:21.255Z,36.67
2018-12-16T23:42:50.191Z,32.90
2018-12-16T23:45:19.918Z,33.23
2018-12-16T23:47:48.850Z,34.05
2018-12-16T23:50:17.762Z,33.27
2018-12-16T23:52:46.740Z,33.70
2018-12-16T23:55:15.655Z,34.53
2018-12-16T23:57:44.571Z,36.35
